sensor_id;sensor_type;location;lat;lon;timestamp;P1;durP1;ratioP1;P2;durP2;ratioP2
70560;SDS011;58109;53.570;10.084;2022-08-21T00:00:06;12.07;;;3.13;;
70560;SDS011;58109;53.570;10.084;2022-08-21T00:02:34;8.00;;;3.40;;
70560;SDS011;58109;53.570;10.084;2022-08-21T00:04:59;12.50;;;3.00;;
70560;SDS011;58109;53.570;10.084;2022-08-21T00:07:25;12.53;;;3.17;;
70560;SDS011;58109;53.570;10.084;2022-08-21T00:09:51;6.80;;;3.30;;
70560;SDS011;58109;53.570;10.084;2022-08-21T00:12:19;8.67;;;3.50;;
70560;SDS011;58109;53.570;10.084;2022-08-21T00:14:49;10.20;;;3.97;;
70560;SDS011;58109;53.570;10.084;2022-08-21T00:17:15;9.70;;;4.00;;
70560;SDS011;58109;53.570;10.084;2022-08-21T00:19:43;9.70;;;4.30;;
70560;SDS011;58109;53.570;10.084;2022-08-21T00:22:09;29.40;;;4.30;;
70560;SDS011;58109;53.570;10.084;2022-08-21T00:24:34;12.00;;;5.00;;
70560;SDS011;58109;53.570;10.084;2022-08-21T00:27:00;16.63;;;5.60;;
70560;SDS011;58109;53.570;10.084;2022-08-21T00:29:27;21.00;;;5.87;;
70560;SDS011;58109;53.570;10.084;2022-08-21T00:31:53;15.33;;;5.77;;
70560;SDS011;58109;53.570;10.084;2022-08-21T00:34:18;15.73;;;6.17;;
70560;SDS011;58109;53.570;10.084;2022-08-21T00:36:46;15.97;;;5.77;;
70560;SDS011;58109;53.570;10.084;2022-08-21T00:39:12;11.30;;;5.20;;
70560;SDS011;58109;53.570;10.084;2022-08-21T00:41:38;10.40;;;5.10;;
70560;SDS011;58109;53.570;10.084;2022-08-21T00:44:04;15.93;;;5.80;;
70560;SDS011;58109;53.570;10.084;2022-08-21T00:46:36;12.27;;;5.40;;
70560;SDS011;58109;53.570;10.084;2022-08-21T00:49:02;13.73;;;6.27;;
70560;SDS011;58109;53.570;10.084;2022-08-21T00:51:49;17.57;;;6.20;;
70560;SDS011;58109;53.570;10.084;2022-08-21T00:54:19;10.83;;;5.13;;
70560;SDS011;58109;53.570;10.084;2022-08-21T00:56:46;24.13;;;6.90;;
70560;SDS011;58109;53.570;10.084;2022-08-21T00:59:14;12.43;;;6.30;;
70560;SDS011;58109;53.570;10.084;2022-08-21T01:05:02;13.20;;;6.20;;
70560;SDS011;58109;53.570;10.084;2022-08-21T01:07:33;16.00;;;6.20;;
70560;SDS011;58109;53.570;10.084;2022-08-21T01:10:03;16.83;;;6.23;;
70560;SDS011;58109;53.570;10.084;2022-08-21T01:12:30;12.33;;;6.23;;
70560;SDS011;58109;53.570;10.084;2022-08-21T01:14:55;18.43;;;6.70;;
70560;SDS011;58109;53.570;10.084;2022-08-21T01:17:27;13.37;;;6.07;;
70560;SDS011;58109;53.570;10.084;2022-08-21T01:19:59;14.83;;;6.03;;
70560;SDS011;58109;53.570;10.084;2022-08-21T01:22:25;13.20;;;7.07;;
70560;SDS011;58109;53.570;10.084;2022-08-21T01:24:56;22.10;;;6.83;;
70560;SDS011;58109;53.570;10.084;2022-08-21T01:27:21;13.90;;;7.10;;
70560;SDS011;58109;53.570;10.084;2022-08-21T01:29:57;15.90;;;7.53;;
70560;SDS011;58109;53.570;10.084;2022-08-21T01:32:26;19.47;;;6.90;;
70560;SDS011;58109;53.570;10.084;2022-08-21T01:34:55;14.00;;;6.83;;
70560;SDS011;58109;53.570;10.084;2022-08-21T01:37:22;13.87;;;7.03;;
70560;SDS011;58109;53.570;10.084;2022-08-21T01:39:50;20.43;;;7.47;;
70560;SDS011;58109;53.570;10.084;2022-08-21T01:42:18;17.40;;;6.97;;
70560;SDS011;58109;53.570;10.084;2022-08-21T01:44:44;15.53;;;7.33;;
70560;SDS011;58109;53.570;10.084;2022-08-21T01:47:13;11.77;;;6.63;;
70560;SDS011;58109;53.570;10.084;2022-08-21T01:49:41;17.63;;;6.90;;
70560;SDS011;58109;53.570;10.084;2022-08-21T01:52:10;21.13;;;7.00;;
70560;SDS011;58109;53.570;10.084;2022-08-21T01:54:36;13.40;;;5.93;;
70560;SDS011;58109;53.570;10.084;2022-08-21T01:57:02;17.00;;;6.80;;
70560;SDS011;58109;53.570;10.084;2022-08-21T01:59:29;10.20;;;5.60;;
70560;SDS011;58109;53.570;10.084;2022-08-21T02:01:55;13.90;;;6.40;;
70560;SDS011;58109;53.570;10.084;2022-08-21T02:04:23;21.70;;;6.70;;
70560;SDS011;58109;53.570;10.084;2022-08-21T02:06:52;13.30;;;7.20;;
70560;SDS011;58109;53.570;10.084;2022-08-21T02:09:17;10.60;;;6.03;;
70560;SDS011;58109;53.570;10.084;2022-08-21T02:11:42;12.67;;;5.50;;
70560;SDS011;58109;53.570;10.084;2022-08-21T02:14:09;11.73;;;5.40;;
70560;SDS011;58109;53.570;10.084;2022-08-21T02:16:36;13.13;;;5.40;;
70560;SDS011;58109;53.570;10.084;2022-08-21T02:19:01;9.43;;;5.10;;
70560;SDS011;58109;53.570;10.084;2022-08-21T02:21:27;12.77;;;6.10;;
70560;SDS011;58109;53.570;10.084;2022-08-21T02:23:53;11.37;;;5.13;;
70560;SDS011;58109;53.570;10.084;2022-08-21T02:26:18;9.73;;;4.90;;
70560;SDS011;58109;53.570;10.084;2022-08-21T02:28:46;12.53;;;5.03;;
70560;SDS011;58109;53.570;10.084;2022-08-21T02:31:11;10.97;;;5.37;;
70560;SDS011;58109;53.570;10.084;2022-08-21T02:33:37;12.33;;;5.10;;
70560;SDS011;58109;53.570;10.084;2022-08-21T02:36:04;15.20;;;5.43;;
70560;SDS011;58109;53.570;10.084;2022-08-21T02:38:33;10.07;;;4.93;;
70560;SDS011;58109;53.570;10.084;2022-08-21T02:41:07;16.17;;;4.63;;
70560;SDS011;58109;53.570;10.084;2022-08-21T02:43:34;11.30;;;5.33;;
70560;SDS011;58109;53.570;10.084;2022-08-21T02:46:03;13.57;;;5.17;;
70560;SDS011;58109;53.570;10.084;2022-08-21T02:48:32;12.60;;;4.77;;
70560;SDS011;58109;53.570;10.084;2022-08-21T02:51:06;16.03;;;5.33;;
70560;SDS011;58109;53.570;10.084;2022-08-21T02:53:33;12.53;;;4.80;;
70560;SDS011;58109;53.570;10.084;2022-08-21T02:55:59;6.83;;;4.60;;
70560;SDS011;58109;53.570;10.084;2022-08-21T02:58:28;11.20;;;5.10;;
70560;SDS011;58109;53.570;10.084;2022-08-21T03:00:58;11.83;;;4.80;;
70560;SDS011;58109;53.570;10.084;2022-08-21T03:03:26;8.90;;;4.40;;
70560;SDS011;58109;53.570;10.084;2022-08-21T03:05:54;10.03;;;4.60;;
70560;SDS011;58109;53.570;10.084;2022-08-21T03:08:20;10.60;;;4.30;;
70560;SDS011;58109;53.570;10.084;2022-08-21T03:10:48;14.90;;;4.50;;
70560;SDS011;58109;53.570;10.084;2022-08-21T03:13:16;11.63;;;4.80;;
70560;SDS011;58109;53.570;10.084;2022-08-21T03:15:44;8.80;;;4.20;;
70560;SDS011;58109;53.570;10.084;2022-08-21T03:18:10;10.20;;;4.37;;
70560;SDS011;58109;53.570;10.084;2022-08-21T03:20:40;7.60;;;4.30;;
70560;SDS011;58109;53.570;10.084;2022-08-21T03:23:06;12.07;;;4.07;;
70560;SDS011;58109;53.570;10.084;2022-08-21T03:25:32;11.90;;;4.33;;
70560;SDS011;58109;53.570;10.084;2022-08-21T03:27:59;14.70;;;4.37;;
70560;SDS011;58109;53.570;10.084;2022-08-21T03:30:27;8.10;;;4.07;;
70560;SDS011;58109;53.570;10.084;2022-08-21T03:32:53;14.70;;;4.80;;
70560;SDS011;58109;53.570;10.084;2022-08-21T03:35:21;11.20;;;4.30;;
70560;SDS011;58109;53.570;10.084;2022-08-21T03:37:46;11.80;;;4.10;;
70560;SDS011;58109;53.570;10.084;2022-08-21T03:40:13;10.30;;;4.30;;
70560;SDS011;58109;53.570;10.084;2022-08-21T03:42:40;9.20;;;4.17;;
70560;SDS011;58109;53.570;10.084;2022-08-21T03:45:08;11.50;;;4.60;;
70560;SDS011;58109;53.570;10.084;2022-08-21T03:47:49;10.10;;;4.10;;
70560;SDS011;58109;53.570;10.084;2022-08-21T03:50:25;16.13;;;4.40;;
70560;SDS011;58109;53.570;10.084;2022-08-21T03:52:55;13.07;;;4.43;;
70560;SDS011;58109;53.570;10.084;2022-08-21T03:55:24;12.03;;;4.43;;
70560;SDS011;58109;53.570;10.084;2022-08-21T03:57:51;9.57;;;4.13;;
70560;SDS011;58109;53.570;10.084;2022-08-21T04:00:16;11.30;;;3.97;;
70560;SDS011;58109;53.570;10.084;2022-08-21T04:02:45;13.63;;;4.30;;
70560;SDS011;58109;53.570;10.084;2022-08-21T04:05:12;10.30;;;3.97;;
70560;SDS011;58109;53.570;10.084;2022-08-21T04:07:38;10.03;;;4.10;;
70560;SDS011;58109;53.570;10.084;2022-08-21T04:10:04;10.90;;;4.10;;
70560;SDS011;58109;53.570;10.084;2022-08-21T04:12:30;11.07;;;3.90;;
70560;SDS011;58109;53.570;10.084;2022-08-21T04:14:56;10.67;;;4.17;;
70560;SDS011;58109;53.570;10.084;2022-08-21T04:17:23;6.10;;;3.63;;
70560;SDS011;58109;53.570;10.084;2022-08-21T04:19:49;10.60;;;3.77;;
70560;SDS011;58109;53.570;10.084;2022-08-21T04:22:15;8.77;;;3.73;;
70560;SDS011;58109;53.570;10.084;2022-08-21T04:24:43;10.20;;;4.50;;
70560;SDS011;58109;53.570;10.084;2022-08-21T04:27:08;9.47;;;3.90;;
70560;SDS011;58109;53.570;10.084;2022-08-21T04:29:38;11.30;;;3.90;;
70560;SDS011;58109;53.570;10.084;2022-08-21T04:32:06;10.43;;;4.83;;
70560;SDS011;58109;53.570;10.084;2022-08-21T04:34:34;11.93;;;4.03;;
70560;SDS011;58109;53.570;10.084;2022-08-21T04:37:01;8.60;;;3.90;;
70560;SDS011;58109;53.570;10.084;2022-08-21T04:39:29;8.90;;;3.70;;
70560;SDS011;58109;53.570;10.084;2022-08-21T04:41:55;6.03;;;3.90;;
70560;SDS011;58109;53.570;10.084;2022-08-21T04:44:20;10.07;;;4.23;;
70560;SDS011;58109;53.570;10.084;2022-08-21T04:46:48;11.33;;;4.10;;
70560;SDS011;58109;53.570;10.084;2022-08-21T04:49:13;7.20;;;3.70;;
70560;SDS011;58109;53.570;10.084;2022-08-21T04:51:41;10.43;;;4.00;;
70560;SDS011;58109;53.570;10.084;2022-08-21T04:54:09;10.07;;;3.70;;
70560;SDS011;58109;53.570;10.084;2022-08-21T04:56:37;12.43;;;3.90;;
70560;SDS011;58109;53.570;10.084;2022-08-21T04:59:10;17.37;;;4.00;;
70560;SDS011;58109;53.570;10.084;2022-08-21T05:01:42;10.67;;;3.60;;
70560;SDS011;58109;53.570;10.084;2022-08-21T05:04:10;7.83;;;4.37;;
70560;SDS011;58109;53.570;10.084;2022-08-21T05:06:40;5.67;;;3.50;;
70560;SDS011;58109;53.570;10.084;2022-08-21T05:09:09;11.43;;;3.70;;
70560;SDS011;58109;53.570;10.084;2022-08-21T05:11:39;6.40;;;3.40;;
70560;SDS011;58109;53.570;10.084;2022-08-21T05:14:07;11.00;;;3.87;;
70560;SDS011;58109;53.570;10.084;2022-08-21T05:16:33;8.00;;;3.50;;
70560;SDS011;58109;53.570;10.084;2022-08-21T05:19:01;6.03;;;3.43;;
70560;SDS011;58109;53.570;10.084;2022-08-21T05:21:29;9.07;;;3.77;;
70560;SDS011;58109;53.570;10.084;2022-08-21T05:23:59;8.30;;;4.37;;
70560;SDS011;58109;53.570;10.084;2022-08-21T05:26:24;13.40;;;3.50;;
70560;SDS011;58109;53.570;10.084;2022-08-21T05:28:50;11.47;;;4.60;;
70560;SDS011;58109;53.570;10.084;2022-08-21T05:31:16;10.00;;;3.70;;
70560;SDS011;58109;53.570;10.084;2022-08-21T05:33:41;9.60;;;4.10;;
70560;SDS011;58109;53.570;10.084;2022-08-21T05:36:07;9.07;;;4.13;;
70560;SDS011;58109;53.570;10.084;2022-08-21T05:38:32;8.00;;;4.00;;
70560;SDS011;58109;53.570;10.084;2022-08-21T05:40:58;7.40;;;3.67;;
70560;SDS011;58109;53.570;10.084;2022-08-21T05:43:25;11.20;;;3.90;;
70560;SDS011;58109;53.570;10.084;2022-08-21T05:45:51;15.73;;;3.67;;
70560;SDS011;58109;53.570;10.084;2022-08-21T05:48:18;7.40;;;3.60;;
70560;SDS011;58109;53.570;10.084;2022-08-21T05:50:48;9.97;;;4.00;;
70560;SDS011;58109;53.570;10.084;2022-08-21T05:53:15;7.40;;;3.33;;
70560;SDS011;58109;53.570;10.084;2022-08-21T05:55:42;7.03;;;3.17;;
70560;SDS011;58109;53.570;10.084;2022-08-21T05:58:12;12.20;;;3.67;;
70560;SDS011;58109;53.570;10.084;2022-08-21T06:00:41;6.33;;;3.00;;
70560;SDS011;58109;53.570;10.084;2022-08-21T06:03:19;7.60;;;3.20;;
70560;SDS011;58109;53.570;10.084;2022-08-21T06:05:46;10.03;;;3.60;;
70560;SDS011;58109;53.570;10.084;2022-08-21T06:08:14;6.93;;;3.10;;
70560;SDS011;58109;53.570;10.084;2022-08-21T06:10:40;6.47;;;2.83;;
70560;SDS011;58109;53.570;10.084;2022-08-21T06:13:06;8.63;;;3.90;;
70560;SDS011;58109;53.570;10.084;2022-08-21T06:15:31;16.53;;;3.07;;
70560;SDS011;58109;53.570;10.084;2022-08-21T06:17:56;8.17;;;3.50;;
70560;SDS011;58109;53.570;10.084;2022-08-21T06:20:22;8.40;;;3.43;;
70560;SDS011;58109;53.570;10.084;2022-08-21T06:22:47;8.70;;;2.93;;
70560;SDS011;58109;53.570;10.084;2022-08-21T06:25:15;7.03;;;3.10;;
70560;SDS011;58109;53.570;10.084;2022-08-21T06:27:44;12.63;;;4.03;;
70560;SDS011;58109;53.570;10.084;2022-08-21T06:30:12;6.20;;;3.20;;
70560;SDS011;58109;53.570;10.084;2022-08-21T06:32:43;10.17;;;3.93;;
70560;SDS011;58109;53.570;10.084;2022-08-21T06:35:08;10.80;;;3.70;;
70560;SDS011;58109;53.570;10.084;2022-08-21T06:37:34;6.40;;;2.93;;
70560;SDS011;58109;53.570;10.084;2022-08-21T06:40:19;8.17;;;3.27;;
70560;SDS011;58109;53.570;10.084;2022-08-21T06:42:47;10.27;;;3.30;;
70560;SDS011;58109;53.570;10.084;2022-08-21T06:45:15;6.70;;;3.07;;
70560;SDS011;58109;53.570;10.084;2022-08-21T06:47:41;12.23;;;3.83;;
70560;SDS011;58109;53.570;10.084;2022-08-21T06:50:10;8.20;;;3.40;;
70560;SDS011;58109;53.570;10.084;2022-08-21T06:52:38;12.10;;;3.40;;
70560;SDS011;58109;53.570;10.084;2022-08-21T06:55:07;13.13;;;3.60;;
70560;SDS011;58109;53.570;10.084;2022-08-21T06:57:34;5.70;;;3.17;;
70560;SDS011;58109;53.570;10.084;2022-08-21T07:00:00;5.30;;;2.70;;
70560;SDS011;58109;53.570;10.084;2022-08-21T07:02:27;9.57;;;3.07;;
70560;SDS011;58109;53.570;10.084;2022-08-21T07:04:53;8.87;;;3.67;;
70560;SDS011;58109;53.570;10.084;2022-08-21T07:07:18;7.30;;;3.10;;
70560;SDS011;58109;53.570;10.084;2022-08-21T07:09:44;4.90;;;2.87;;
70560;SDS011;58109;53.570;10.084;2022-08-21T07:12:12;9.33;;;2.67;;
70560;SDS011;58109;53.570;10.084;2022-08-21T07:14:37;7.53;;;3.00;;
70560;SDS011;58109;53.570;10.084;2022-08-21T07:17:05;8.83;;;2.60;;
70560;SDS011;58109;53.570;10.084;2022-08-21T07:19:30;5.37;;;2.60;;
70560;SDS011;58109;53.570;10.084;2022-08-21T07:21:57;10.63;;;2.57;;
70560;SDS011;58109;53.570;10.084;2022-08-21T07:24:24;10.63;;;2.50;;
70560;SDS011;58109;53.570;10.084;2022-08-21T07:26:49;11.20;;;3.03;;
70560;SDS011;58109;53.570;10.084;2022-08-21T07:29:15;8.27;;;3.20;;
70560;SDS011;58109;53.570;10.084;2022-08-21T07:31:40;4.50;;;2.97;;
70560;SDS011;58109;53.570;10.084;2022-08-21T07:34:07;13.30;;;3.70;;
70560;SDS011;58109;53.570;10.084;2022-08-21T07:36:33;6.47;;;2.87;;
70560;SDS011;58109;53.570;10.084;2022-08-21T07:38:58;10.23;;;2.20;;
70560;SDS011;58109;53.570;10.084;2022-08-21T07:41:25;8.23;;;2.77;;
70560;SDS011;58109;53.570;10.084;2022-08-21T07:43:53;8.30;;;2.30;;
70560;SDS011;58109;53.570;10.084;2022-08-21T07:46:22;5.87;;;2.60;;
70560;SDS011;58109;53.570;10.084;2022-08-21T07:48:50;8.07;;;2.60;;
70560;SDS011;58109;53.570;10.084;2022-08-21T07:51:18;6.73;;;1.93;;
70560;SDS011;58109;53.570;10.084;2022-08-21T07:53:50;6.60;;;2.70;;
70560;SDS011;58109;53.570;10.084;2022-08-21T07:56:19;6.83;;;2.30;;
70560;SDS011;58109;53.570;10.084;2022-08-21T07:58:45;8.00;;;1.83;;
70560;SDS011;58109;53.570;10.084;2022-08-21T08:01:10;6.07;;;2.00;;
70560;SDS011;58109;53.570;10.084;2022-08-21T08:03:38;17.50;;;2.50;;
70560;SDS011;58109;53.570;10.084;2022-08-21T08:06:04;6.27;;;2.27;;
70560;SDS011;58109;53.570;10.084;2022-08-21T08:08:30;8.10;;;2.27;;
70560;SDS011;58109;53.570;10.084;2022-08-21T08:10:58;5.30;;;1.90;;
70560;SDS011;58109;53.570;10.084;2022-08-21T08:13:24;7.50;;;2.40;;
70560;SDS011;58109;53.570;10.084;2022-08-21T08:15:52;8.80;;;2.30;;
70560;SDS011;58109;53.570;10.084;2022-08-21T08:18:20;6.43;;;2.00;;
70560;SDS011;58109;53.570;10.084;2022-08-21T08:20:49;7.13;;;2.40;;
70560;SDS011;58109;53.570;10.084;2022-08-21T08:23:14;5.57;;;2.10;;
70560;SDS011;58109;53.570;10.084;2022-08-21T08:25:43;11.80;;;2.30;;
70560;SDS011;58109;53.570;10.084;2022-08-21T08:28:08;15.03;;;2.20;;
70560;SDS011;58109;53.570;10.084;2022-08-21T08:30:36;6.53;;;2.40;;
70560;SDS011;58109;53.570;10.084;2022-08-21T08:33:04;4.60;;;2.20;;
70560;SDS011;58109;53.570;10.084;2022-08-21T08:35:34;18.63;;;2.63;;
70560;SDS011;58109;53.570;10.084;2022-08-21T08:38:02;8.20;;;2.50;;
70560;SDS011;58109;53.570;10.084;2022-08-21T08:43:12;9.37;;;2.80;;
70560;SDS011;58109;53.570;10.084;2022-08-21T08:45:40;9.53;;;2.43;;
70560;SDS011;58109;53.570;10.084;2022-08-21T08:48:12;8.10;;;3.60;;
70560;SDS011;58109;53.570;10.084;2022-08-21T08:50:48;14.30;;;5.80;;
70560;SDS011;58109;53.570;10.084;2022-08-21T08:53:31;12.40;;;2.60;;
70560;SDS011;58109;53.570;10.084;2022-08-21T08:55:59;4.80;;;2.30;;
70560;SDS011;58109;53.570;10.084;2022-08-21T08:58:28;16.63;;;3.13;;
70560;SDS011;58109;53.570;10.084;2022-08-21T09:00:56;8.33;;;2.60;;
70560;SDS011;58109;53.570;10.084;2022-08-21T09:03:24;12.70;;;3.00;;
70560;SDS011;58109;53.570;10.084;2022-08-21T09:05:59;20.73;;;2.90;;
70560;SDS011;58109;53.570;10.084;2022-08-21T09:09:12;8.73;;;3.87;;
70560;SDS011;58109;53.570;10.084;2022-08-21T09:12:02;5.20;;;2.20;;
70560;SDS011;58109;53.570;10.084;2022-08-21T09:17:03;11.33;;;2.73;;
70560;SDS011;58109;53.570;10.084;2022-08-21T09:27:56;9.40;;;3.07;;
70560;SDS011;58109;53.570;10.084;2022-08-21T09:30:29;9.40;;;2.50;;
70560;SDS011;58109;53.570;10.084;2022-08-21T09:32:58;12.00;;;3.00;;
70560;SDS011;58109;53.570;10.084;2022-08-21T09:35:24;12.80;;;2.77;;
70560;SDS011;58109;53.570;10.084;2022-08-21T09:45:40;19.23;;;3.40;;
70560;SDS011;58109;53.570;10.084;2022-08-21T09:48:25;12.00;;;2.83;;
70560;SDS011;58109;53.570;10.084;2022-08-21T09:50:51;21.77;;;4.13;;
70560;SDS011;58109;53.570;10.084;2022-08-21T09:53:21;11.50;;;2.90;;
70560;SDS011;58109;53.570;10.084;2022-08-21T09:55:52;22.43;;;5.17;;
70560;SDS011;58109;53.570;10.084;2022-08-21T09:58:42;10.23;;;3.50;;
70560;SDS011;58109;53.570;10.084;2022-08-21T10:01:14;14.73;;;2.90;;
70560;SDS011;58109;53.570;10.084;2022-08-21T10:03:45;29.33;;;4.77;;
70560;SDS011;58109;53.570;10.084;2022-08-21T10:06:19;12.63;;;3.03;;
70560;SDS011;58109;53.570;10.084;2022-08-21T10:08:50;11.70;;;3.20;;
70560;SDS011;58109;53.570;10.084;2022-08-21T10:11:18;28.97;;;4.20;;
70560;SDS011;58109;53.570;10.084;2022-08-21T10:16:40;16.30;;;3.40;;
70560;SDS011;58109;53.570;10.084;2022-08-21T10:48:05;12.03;;;3.03;;
70560;SDS011;58109;53.570;10.084;2022-08-21T10:58:28;11.77;;;3.17;;
70560;SDS011;58109;53.570;10.084;2022-08-21T11:01:02;11.57;;;2.63;;
70560;SDS011;58109;53.570;10.084;2022-08-21T11:03:39;9.33;;;2.60;;
70560;SDS011;58109;53.570;10.084;2022-08-21T11:06:14;13.47;;;2.70;;
70560;SDS011;58109;53.570;10.084;2022-08-21T11:08:48;4.83;;;2.20;;
70560;SDS011;58109;53.570;10.084;2022-08-21T11:11:24;11.27;;;3.00;;
70560;SDS011;58109;53.570;10.084;2022-08-21T11:25:37;11.63;;;2.07;;
70560;SDS011;58109;53.570;10.084;2022-08-21T11:27:43;9.50;;;2.47;;
70560;SDS011;58109;53.570;10.084;2022-08-21T11:30:10;20.67;;;3.20;;
70560;SDS011;58109;53.570;10.084;2022-08-21T11:32:43;8.37;;;2.90;;
70560;SDS011;58109;53.570;10.084;2022-08-21T11:50:52;6.27;;;2.43;;
70560;SDS011;58109;53.570;10.084;2022-08-21T11:53:30;14.60;;;3.73;;
70560;SDS011;58109;53.570;10.084;2022-08-21T11:56:11;6.60;;;3.30;;
70560;SDS011;58109;53.570;10.084;2022-08-21T11:58:54;4.10;;;2.30;;
70560;SDS011;58109;53.570;10.084;2022-08-21T12:01:29;7.10;;;2.30;;
70560;SDS011;58109;53.570;10.084;2022-08-21T12:06:36;6.87;;;2.50;;
70560;SDS011;58109;53.570;10.084;2022-08-21T12:09:10;8.73;;;2.30;;
70560;SDS011;58109;53.570;10.084;2022-08-21T12:14:51;15.80;;;5.90;;
70560;SDS011;58109;53.570;10.084;2022-08-21T12:17:35;5.93;;;3.30;;
70560;SDS011;58109;53.570;10.084;2022-08-21T12:23:04;7.13;;;2.30;;
70560;SDS011;58109;53.570;10.084;2022-08-21T12:25:40;3.90;;;1.83;;
70560;SDS011;58109;53.570;10.084;2022-08-21T12:28:15;6.70;;;1.87;;
70560;SDS011;58109;53.570;10.084;2022-08-21T12:30:46;2.73;;;1.60;;
70560;SDS011;58109;53.570;10.084;2022-08-21T12:33:23;7.10;;;2.13;;
70560;SDS011;58109;53.570;10.084;2022-08-21T12:36:17;10.73;;;2.13;;
70560;SDS011;58109;53.570;10.084;2022-08-21T12:38:59;3.00;;;1.53;;
70560;SDS011;58109;53.570;10.084;2022-08-21T12:41:34;11.53;;;2.83;;
70560;SDS011;58109;53.570;10.084;2022-08-21T12:44:22;5.53;;;2.40;;
70560;SDS011;58109;53.570;10.084;2022-08-21T12:46:56;5.43;;;1.80;;
70560;SDS011;58109;53.570;10.084;2022-08-21T12:49:43;7.47;;;2.40;;
70560;SDS011;58109;53.570;10.084;2022-08-21T12:52:16;5.47;;;2.07;;
70560;SDS011;58109;53.570;10.084;2022-08-21T12:54:45;9.40;;;3.53;;
70560;SDS011;58109;53.570;10.084;2022-08-21T12:57:17;23.00;;;7.20;;
70560;SDS011;58109;53.570;10.084;2022-08-21T12:59:50;9.73;;;2.03;;
70560;SDS011;58109;53.570;10.084;2022-08-21T13:02:18;6.57;;;2.60;;
70560;SDS011;58109;53.570;10.084;2022-08-21T13:04:54;6.80;;;2.20;;
70560;SDS011;58109;53.570;10.084;2022-08-21T13:07:28;6.60;;;1.90;;
70560;SDS011;58109;53.570;10.084;2022-08-21T13:12:31;3.63;;;1.60;;
70560;SDS011;58109;53.570;10.084;2022-08-21T13:15:06;3.03;;;1.60;;
70560;SDS011;58109;53.570;10.084;2022-08-21T13:17:42;5.13;;;2.00;;
70560;SDS011;58109;53.570;10.084;2022-08-21T13:22:54;3.37;;;2.00;;
70560;SDS011;58109;53.570;10.084;2022-08-21T13:25:24;2.73;;;1.60;;
70560;SDS011;58109;53.570;10.084;2022-08-21T13:27:59;1.67;;;1.57;;
70560;SDS011;58109;53.570;10.084;2022-08-21T13:30:28;5.60;;;2.00;;
70560;SDS011;58109;53.570;10.084;2022-08-21T13:32:56;5.70;;;1.77;;
70560;SDS011;58109;53.570;10.084;2022-08-21T13:35:28;6.77;;;1.60;;
70560;SDS011;58109;53.570;10.084;2022-08-21T13:37:56;2.87;;;1.47;;
70560;SDS011;58109;53.570;10.084;2022-08-21T13:40:27;5.40;;;1.70;;
70560;SDS011;58109;53.570;10.084;2022-08-21T13:42:54;6.90;;;1.50;;
70560;SDS011;58109;53.570;10.084;2022-08-21T13:45:31;5.40;;;1.43;;
70560;SDS011;58109;53.570;10.084;2022-08-21T13:47:57;3.07;;;1.40;;
70560;SDS011;58109;53.570;10.084;2022-08-21T13:50:27;6.67;;;1.67;;
70560;SDS011;58109;53.570;10.084;2022-08-21T13:53:00;7.50;;;1.70;;
70560;SDS011;58109;53.570;10.084;2022-08-21T13:55:40;4.77;;;1.63;;
70560;SDS011;58109;53.570;10.084;2022-08-21T13:58:08;1.57;;;1.47;;
70560;SDS011;58109;53.570;10.084;2022-08-21T14:00:47;3.83;;;1.20;;
70560;SDS011;58109;53.570;10.084;2022-08-21T14:03:23;8.37;;;1.60;;
70560;SDS011;58109;53.570;10.084;2022-08-21T14:05:56;9.90;;;1.50;;
70560;SDS011;58109;53.570;10.084;2022-08-21T14:11:02;4.73;;;1.80;;
70560;SDS011;58109;53.570;10.084;2022-08-21T14:15:59;3.10;;;1.60;;
70560;SDS011;58109;53.570;10.084;2022-08-21T14:21:47;6.23;;;2.13;;
70560;SDS011;58109;53.570;10.084;2022-08-21T14:24:14;5.10;;;2.00;;
70560;SDS011;58109;53.570;10.084;2022-08-21T14:26:58;4.03;;;1.70;;
70560;SDS011;58109;53.570;10.084;2022-08-21T14:29:28;5.67;;;2.00;;
70560;SDS011;58109;53.570;10.084;2022-08-21T14:31:59;6.63;;;1.90;;
70560;SDS011;58109;53.570;10.084;2022-08-21T14:34:26;6.17;;;1.80;;
70560;SDS011;58109;53.570;10.084;2022-08-21T14:36:52;4.17;;;1.60;;
70560;SDS011;58109;53.570;10.084;2022-08-21T14:39:18;2.50;;;1.63;;
70560;SDS011;58109;53.570;10.084;2022-08-21T14:41:46;3.87;;;1.53;;
70560;SDS011;58109;53.570;10.084;2022-08-21T14:44:16;4.37;;;1.70;;
70560;SDS011;58109;53.570;10.084;2022-08-21T14:46:43;7.30;;;1.70;;
70560;SDS011;58109;53.570;10.084;2022-08-21T14:49:11;8.17;;;1.80;;
70560;SDS011;58109;53.570;10.084;2022-08-21T14:51:37;7.87;;;2.20;;
70560;SDS011;58109;53.570;10.084;2022-08-21T14:54:04;9.50;;;2.27;;
70560;SDS011;58109;53.570;10.084;2022-08-21T14:56:34;4.63;;;1.53;;
70560;SDS011;58109;53.570;10.084;2022-08-21T14:59:02;2.97;;;1.80;;
70560;SDS011;58109;53.570;10.084;2022-08-21T15:01:29;5.93;;;1.97;;
70560;SDS011;58109;53.570;10.084;2022-08-21T15:03:56;11.93;;;1.70;;
70560;SDS011;58109;53.570;10.084;2022-08-21T15:06:21;4.60;;;1.50;;
70560;SDS011;58109;53.570;10.084;2022-08-21T15:08:49;3.90;;;1.50;;
70560;SDS011;58109;53.570;10.084;2022-08-21T15:11:21;4.77;;;1.73;;
70560;SDS011;58109;53.570;10.084;2022-08-21T15:13:48;5.20;;;1.80;;
70560;SDS011;58109;53.570;10.084;2022-08-21T15:16:21;2.47;;;1.50;;
70560;SDS011;58109;53.570;10.084;2022-08-21T15:18:46;4.53;;;1.97;;
70560;SDS011;58109;53.570;10.084;2022-08-21T15:21:11;2.27;;;1.60;;
70560;SDS011;58109;53.570;10.084;2022-08-21T15:23:37;3.83;;;1.73;;
70560;SDS011;58109;53.570;10.084;2022-08-21T15:26:05;2.53;;;1.60;;
70560;SDS011;58109;53.570;10.084;2022-08-21T15:28:30;7.80;;;2.00;;
70560;SDS011;58109;53.570;10.084;2022-08-21T15:31:01;5.87;;;1.33;;
70560;SDS011;58109;53.570;10.084;2022-08-21T15:33:29;3.07;;;1.50;;
70560;SDS011;58109;53.570;10.084;2022-08-21T15:35:55;4.10;;;1.30;;
70560;SDS011;58109;53.570;10.084;2022-08-21T15:38:20;4.17;;;1.33;;
70560;SDS011;58109;53.570;10.084;2022-08-21T15:40:46;4.07;;;1.40;;
70560;SDS011;58109;53.570;10.084;2022-08-21T15:43:21;3.67;;;1.60;;
70560;SDS011;58109;53.570;10.084;2022-08-21T15:45:47;8.70;;;2.43;;
70560;SDS011;58109;53.570;10.084;2022-08-21T15:48:13;3.23;;;1.57;;
70560;SDS011;58109;53.570;10.084;2022-08-21T15:50:41;5.20;;;1.97;;
70560;SDS011;58109;53.570;10.084;2022-08-21T15:53:06;5.63;;;1.60;;
70560;SDS011;58109;53.570;10.084;2022-08-21T15:55:32;3.70;;;1.30;;
70560;SDS011;58109;53.570;10.084;2022-08-21T15:57:58;8.27;;;1.77;;
70560;SDS011;58109;53.570;10.084;2022-08-21T16:00:24;3.80;;;1.90;;
70560;SDS011;58109;53.570;10.084;2022-08-21T16:02:52;5.77;;;2.03;;
70560;SDS011;58109;53.570;10.084;2022-08-21T16:05:19;6.73;;;2.10;;
70560;SDS011;58109;53.570;10.084;2022-08-21T16:07:45;3.07;;;1.23;;
70560;SDS011;58109;53.570;10.084;2022-08-21T16:10:11;2.90;;;1.63;;
70560;SDS011;58109;53.570;10.084;2022-08-21T16:12:38;4.13;;;1.97;;
70560;SDS011;58109;53.570;10.084;2022-08-21T16:15:09;3.60;;;2.03;;
70560;SDS011;58109;53.570;10.084;2022-08-21T16:17:36;4.20;;;1.70;;
70560;SDS011;58109;53.570;10.084;2022-08-21T16:20:03;10.50;;;2.40;;
70560;SDS011;58109;53.570;10.084;2022-08-21T16:22:31;7.60;;;2.20;;
70560;SDS011;58109;53.570;10.084;2022-08-21T16:24:59;4.83;;;1.63;;
70560;SDS011;58109;53.570;10.084;2022-08-21T16:27:26;2.73;;;1.50;;
70560;SDS011;58109;53.570;10.084;2022-08-21T16:29:58;6.10;;;1.80;;
70560;SDS011;58109;53.570;10.084;2022-08-21T16:32:35;7.60;;;1.63;;